< < Back
Terminal Aerodrome Forecast


Current Version              Previous Versions:   1  2  3  4  5  6  7  8  9  

Terminal Aerodrome Forecast

281
FTUS42 KMLB 031026 AAB
TAFDAB
TAF AMD
KDAB 031026Z 0310/0406 20006KT P6SM FEW030 SCT060 BKN250
     FM031500 23010KT P6SM SCT025
     FM032000 24009KT P6SM VCTS BKN035CB
      TEMPO 0320/0323 3SM TSRA BKN020CB
     FM040200 23007KT P6SM SCT050 BKN150=

Latest METAR

222
SAUS80 KWBC 031800
MTRDAB
METAR KDAB 031753Z 26010KT 10SM SCT050CB SCT070 SCT250 31/19 A2990 RMK
AO2 SLP125 CB N MOV E TCU OHD VCSH N T03060194 10317 20222
58019


USA.gov is the U.S. government's official web portal to all federal, state and local government web resources and services.